sensor_id;sensor_type;location;lat;lon;timestamp;P1;durP1;ratioP1;P2;durP2;ratioP2
11921;SDS011;6021;51.182;3.160;2022-12-07T00:01:43;35.90;;;22.00;;
11921;SDS011;6021;51.182;3.160;2022-12-07T00:04:14;38.70;;;21.73;;
11921;SDS011;6021;51.182;3.160;2022-12-07T00:06:45;21.00;;;16.87;;
11921;SDS011;6021;51.182;3.160;2022-12-07T00:09:15;33.03;;;23.63;;
11921;SDS011;6021;51.182;3.160;2022-12-07T00:11:45;36.60;;;25.67;;
11921;SDS011;6021;51.182;3.160;2022-12-07T00:14:18;15.43;;;13.50;;
11921;SDS011;6021;51.182;3.160;2022-12-07T00:16:48;16.50;;;10.97;;
11921;SDS011;6021;51.182;3.160;2022-12-07T00:19:18;14.33;;;12.77;;
11921;SDS011;6021;51.182;3.160;2022-12-07T00:21:47;9.37;;;8.40;;
11921;SDS011;6021;51.182;3.160;2022-12-07T00:24:15;8.53;;;7.33;;
11921;SDS011;6021;51.182;3.160;2022-12-07T00:26:44;7.77;;;7.03;;
11921;SDS011;6021;51.182;3.160;2022-12-07T00:29:16;6.30;;;5.70;;
11921;SDS011;6021;51.182;3.160;2022-12-07T00:31:46;7.87;;;6.50;;
11921;SDS011;6021;51.182;3.160;2022-12-07T00:34:16;6.13;;;5.60;;
11921;SDS011;6021;51.182;3.160;2022-12-07T00:36:47;8.03;;;7.10;;
11921;SDS011;6021;51.182;3.160;2022-12-07T00:39:16;14.97;;;11.57;;
11921;SDS011;6021;51.182;3.160;2022-12-07T00:41:44;11.50;;;9.93;;
11921;SDS011;6021;51.182;3.160;2022-12-07T00:44:13;14.33;;;7.97;;
11921;SDS011;6021;51.182;3.160;2022-12-07T00:46:41;14.03;;;8.07;;
11921;SDS011;6021;51.182;3.160;2022-12-07T00:49:11;7.23;;;6.17;;
11921;SDS011;6021;51.182;3.160;2022-12-07T00:51:39;13.40;;;7.00;;
11921;SDS011;6021;51.182;3.160;2022-12-07T00:54:08;6.83;;;4.80;;
11921;SDS011;6021;51.182;3.160;2022-12-07T00:56:36;7.37;;;5.53;;
11921;SDS011;6021;51.182;3.160;2022-12-07T00:59:04;9.03;;;7.20;;
11921;SDS011;6021;51.182;3.160;2022-12-07T01:01:34;6.33;;;5.50;;
11921;SDS011;6021;51.182;3.160;2022-12-07T01:04:04;12.40;;;9.57;;
11921;SDS011;6021;51.182;3.160;2022-12-07T01:06:32;8.27;;;7.47;;
11921;SDS011;6021;51.182;3.160;2022-12-07T01:09:01;7.20;;;6.50;;
11921;SDS011;6021;51.182;3.160;2022-12-07T01:11:31;7.00;;;6.07;;
11921;SDS011;6021;51.182;3.160;2022-12-07T01:13:59;6.20;;;5.60;;
11921;SDS011;6021;51.182;3.160;2022-12-07T01:16:29;4.53;;;3.87;;
11921;SDS011;6021;51.182;3.160;2022-12-07T01:18:58;5.00;;;4.50;;
11921;SDS011;6021;51.182;3.160;2022-12-07T01:21:29;3.20;;;2.90;;
11921;SDS011;6021;51.182;3.160;2022-12-07T01:24:03;2.67;;;2.47;;
11921;SDS011;6021;51.182;3.160;2022-12-07T01:26:33;6.43;;;4.10;;
11921;SDS011;6021;51.182;3.160;2022-12-07T01:29:01;4.67;;;3.10;;
11921;SDS011;6021;51.182;3.160;2022-12-07T01:31:30;5.93;;;4.53;;
11921;SDS011;6021;51.182;3.160;2022-12-07T01:33:58;9.20;;;5.40;;
11921;SDS011;6021;51.182;3.160;2022-12-07T01:36:28;12.30;;;7.87;;
11921;SDS011;6021;51.182;3.160;2022-12-07T01:38:59;8.27;;;5.57;;
11921;SDS011;6021;51.182;3.160;2022-12-07T01:41:30;18.10;;;10.83;;
11921;SDS011;6021;51.182;3.160;2022-12-07T01:44:11;6.60;;;3.80;;
11921;SDS011;6021;51.182;3.160;2022-12-07T01:46:53;7.47;;;6.30;;
11921;SDS011;6021;51.182;3.160;2022-12-07T01:49:31;19.10;;;12.27;;
11921;SDS011;6021;51.182;3.160;2022-12-07T01:54:54;7.20;;;4.63;;
11921;SDS011;6021;51.182;3.160;2022-12-07T01:57:25;5.87;;;4.67;;
11921;SDS011;6021;51.182;3.160;2022-12-07T01:59:54;8.90;;;6.60;;
11921;SDS011;6021;51.182;3.160;2022-12-07T02:02:27;6.50;;;4.83;;
11921;SDS011;6021;51.182;3.160;2022-12-07T02:04:58;8.30;;;6.33;;
11921;SDS011;6021;51.182;3.160;2022-12-07T02:07:29;5.10;;;4.40;;
11921;SDS011;6021;51.182;3.160;2022-12-07T02:10:11;6.37;;;5.23;;
11921;SDS011;6021;51.182;3.160;2022-12-07T02:12:46;9.60;;;7.17;;
11921;SDS011;6021;51.182;3.160;2022-12-07T02:15:16;10.67;;;6.37;;
11921;SDS011;6021;51.182;3.160;2022-12-07T02:20:36;9.00;;;4.90;;
11921;SDS011;6021;51.182;3.160;2022-12-07T02:26:19;8.07;;;4.97;;
11921;SDS011;6021;51.182;3.160;2022-12-07T02:29:00;3.73;;;2.77;;
11921;SDS011;6021;51.182;3.160;2022-12-07T02:31:49;4.83;;;3.40;;
11921;SDS011;6021;51.182;3.160;2022-12-07T02:34:19;2.90;;;2.10;;
11921;SDS011;6021;51.182;3.160;2022-12-07T02:36:54;2.80;;;2.03;;
11921;SDS011;6021;51.182;3.160;2022-12-07T02:42:07;3.53;;;1.80;;
11921;SDS011;6021;51.182;3.160;2022-12-07T02:44:35;2.87;;;2.20;;
11921;SDS011;6021;51.182;3.160;2022-12-07T02:47:05;4.23;;;2.00;;
11921;SDS011;6021;51.182;3.160;2022-12-07T02:49:36;3.00;;;1.83;;
11921;SDS011;6021;51.182;3.160;2022-12-07T02:52:06;2.47;;;1.33;;
11921;SDS011;6021;51.182;3.160;2022-12-07T02:54:35;4.20;;;1.43;;
11921;SDS011;6021;51.182;3.160;2022-12-07T02:59:58;9.47;;;2.00;;
11921;SDS011;6021;51.182;3.160;2022-12-07T03:05:32;4.50;;;1.90;;
11921;SDS011;6021;51.182;3.160;2022-12-07T03:08:11;5.07;;;1.70;;
11921;SDS011;6021;51.182;3.160;2022-12-07T03:11:03;3.00;;;1.40;;
11921;SDS011;6021;51.182;3.160;2022-12-07T03:13:39;1.63;;;1.30;;
11921;SDS011;6021;51.182;3.160;2022-12-07T03:16:24;3.87;;;1.40;;
11921;SDS011;6021;51.182;3.160;2022-12-07T03:19:01;2.73;;;1.20;;
11921;SDS011;6021;51.182;3.160;2022-12-07T03:21:38;2.03;;;1.10;;
11921;SDS011;6021;51.182;3.160;2022-12-07T03:24:12;3.63;;;1.53;;
11921;SDS011;6021;51.182;3.160;2022-12-07T03:26:46;1.27;;;1.17;;
11921;SDS011;6021;51.182;3.160;2022-12-07T03:29:30;1.90;;;1.30;;
11921;SDS011;6021;51.182;3.160;2022-12-07T03:31:58;4.63;;;1.57;;
11921;SDS011;6021;51.182;3.160;2022-12-07T03:34:32;3.43;;;1.33;;
11921;SDS011;6021;51.182;3.160;2022-12-07T03:37:12;2.60;;;1.53;;
11921;SDS011;6021;51.182;3.160;2022-12-07T03:39:57;3.83;;;2.03;;
11921;SDS011;6021;51.182;3.160;2022-12-07T03:42:25;5.97;;;3.47;;
11921;SDS011;6021;51.182;3.160;2022-12-07T03:44:54;18.37;;;5.93;;
11921;SDS011;6021;51.182;3.160;2022-12-07T03:52:42;7.33;;;3.40;;
11921;SDS011;6021;51.182;3.160;2022-12-07T03:55:15;6.53;;;2.93;;
11921;SDS011;6021;51.182;3.160;2022-12-07T03:58:02;9.13;;;3.73;;
11921;SDS011;6021;51.182;3.160;2022-12-07T04:00:31;9.10;;;4.10;;
11921;SDS011;6021;51.182;3.160;2022-12-07T04:03:00;5.37;;;3.30;;
11921;SDS011;6021;51.182;3.160;2022-12-07T04:05:28;9.20;;;4.83;;
11921;SDS011;6021;51.182;3.160;2022-12-07T04:07:57;10.07;;;4.80;;
11921;SDS011;6021;51.182;3.160;2022-12-07T04:10:25;5.97;;;3.43;;
11921;SDS011;6021;51.182;3.160;2022-12-07T04:12:54;8.43;;;3.60;;
11921;SDS011;6021;51.182;3.160;2022-12-07T04:15:22;5.47;;;3.10;;
11921;SDS011;6021;51.182;3.160;2022-12-07T04:17:51;4.67;;;2.50;;
11921;SDS011;6021;51.182;3.160;2022-12-07T04:20:20;3.07;;;2.50;;
11921;SDS011;6021;51.182;3.160;2022-12-07T04:22:49;3.97;;;2.90;;
11921;SDS011;6021;51.182;3.160;2022-12-07T04:25:17;7.40;;;2.80;;
11921;SDS011;6021;51.182;3.160;2022-12-07T04:27:45;3.57;;;2.50;;
11921;SDS011;6021;51.182;3.160;2022-12-07T04:30:14;3.77;;;2.10;;
11921;SDS011;6021;51.182;3.160;2022-12-07T04:32:42;2.93;;;2.03;;
11921;SDS011;6021;51.182;3.160;2022-12-07T04:35:11;6.30;;;3.77;;
11921;SDS011;6021;51.182;3.160;2022-12-07T04:37:39;6.70;;;2.90;;
11921;SDS011;6021;51.182;3.160;2022-12-07T04:40:08;5.63;;;3.50;;
11921;SDS011;6021;51.182;3.160;2022-12-07T04:42:37;6.10;;;2.50;;
11921;SDS011;6021;51.182;3.160;2022-12-07T04:45:06;1.93;;;1.70;;
11921;SDS011;6021;51.182;3.160;2022-12-07T04:47:35;11.27;;;2.70;;
11921;SDS011;6021;51.182;3.160;2022-12-07T04:50:04;6.23;;;2.27;;
11921;SDS011;6021;51.182;3.160;2022-12-07T04:52:33;8.27;;;2.67;;
11921;SDS011;6021;51.182;3.160;2022-12-07T04:55:01;4.90;;;1.90;;
11921;SDS011;6021;51.182;3.160;2022-12-07T04:57:29;7.27;;;2.00;;
11921;SDS011;6021;51.182;3.160;2022-12-07T04:59:58;6.40;;;1.70;;
11921;SDS011;6021;51.182;3.160;2022-12-07T05:02:26;3.73;;;1.60;;
11921;SDS011;6021;51.182;3.160;2022-12-07T05:04:55;6.67;;;1.77;;
11921;SDS011;6021;51.182;3.160;2022-12-07T05:07:23;6.57;;;1.80;;
11921;SDS011;6021;51.182;3.160;2022-12-07T05:09:51;5.20;;;1.60;;
11921;SDS011;6021;51.182;3.160;2022-12-07T05:12:20;3.97;;;1.53;;
11921;SDS011;6021;51.182;3.160;2022-12-07T05:14:48;2.60;;;1.37;;
11921;SDS011;6021;51.182;3.160;2022-12-07T05:17:16;4.37;;;1.30;;
11921;SDS011;6021;51.182;3.160;2022-12-07T05:19:45;3.97;;;1.40;;
11921;SDS011;6021;51.182;3.160;2022-12-07T05:22:13;2.53;;;1.37;;
11921;SDS011;6021;51.182;3.160;2022-12-07T05:24:41;4.00;;;1.20;;
11921;SDS011;6021;51.182;3.160;2022-12-07T05:27:10;3.77;;;1.40;;
11921;SDS011;6021;51.182;3.160;2022-12-07T05:29:38;2.93;;;1.37;;
11921;SDS011;6021;51.182;3.160;2022-12-07T05:32:06;2.00;;;1.13;;
11921;SDS011;6021;51.182;3.160;2022-12-07T05:34:35;5.03;;;1.47;;
11921;SDS011;6021;51.182;3.160;2022-12-07T05:37:03;6.37;;;1.30;;
11921;SDS011;6021;51.182;3.160;2022-12-07T05:39:32;6.33;;;1.53;;
11921;SDS011;6021;51.182;3.160;2022-12-07T05:42:00;5.37;;;1.50;;
11921;SDS011;6021;51.182;3.160;2022-12-07T05:44:46;6.87;;;1.50;;
11921;SDS011;6021;51.182;3.160;2022-12-07T05:47:12;7.37;;;1.83;;
11921;SDS011;6021;51.182;3.160;2022-12-07T05:49:41;5.17;;;1.50;;
11921;SDS011;6021;51.182;3.160;2022-12-07T05:52:10;3.20;;;1.30;;
11921;SDS011;6021;51.182;3.160;2022-12-07T05:54:38;4.33;;;1.33;;
11921;SDS011;6021;51.182;3.160;2022-12-07T05:57:06;4.17;;;1.27;;
11921;SDS011;6021;51.182;3.160;2022-12-07T05:59:35;3.50;;;1.20;;
11921;SDS011;6021;51.182;3.160;2022-12-07T06:02:09;3.13;;;1.23;;
11921;SDS011;6021;51.182;3.160;2022-12-07T06:04:36;3.00;;;1.27;;
11921;SDS011;6021;51.182;3.160;2022-12-07T06:07:06;2.90;;;1.50;;
11921;SDS011;6021;51.182;3.160;2022-12-07T06:09:35;2.67;;;1.20;;
11921;SDS011;6021;51.182;3.160;2022-12-07T06:12:04;4.13;;;1.50;;
11921;SDS011;6021;51.182;3.160;2022-12-07T06:14:51;4.87;;;1.43;;
11921;SDS011;6021;51.182;3.160;2022-12-07T06:17:19;5.30;;;1.73;;
11921;SDS011;6021;51.182;3.160;2022-12-07T06:19:47;3.83;;;1.40;;
11921;SDS011;6021;51.182;3.160;2022-12-07T06:22:16;2.20;;;1.30;;
11921;SDS011;6021;51.182;3.160;2022-12-07T06:24:44;3.77;;;1.50;;
11921;SDS011;6021;51.182;3.160;2022-12-07T06:27:13;2.80;;;1.30;;
11921;SDS011;6021;51.182;3.160;2022-12-07T06:29:41;3.03;;;1.40;;
11921;SDS011;6021;51.182;3.160;2022-12-07T06:32:10;3.33;;;1.30;;
11921;SDS011;6021;51.182;3.160;2022-12-07T06:34:38;2.83;;;1.40;;
11921;SDS011;6021;51.182;3.160;2022-12-07T06:37:07;5.93;;;2.23;;
11921;SDS011;6021;51.182;3.160;2022-12-07T06:39:35;5.70;;;1.27;;
11921;SDS011;6021;51.182;3.160;2022-12-07T06:42:03;2.37;;;1.23;;
11921;SDS011;6021;51.182;3.160;2022-12-07T06:44:32;4.90;;;1.47;;
11921;SDS011;6021;51.182;3.160;2022-12-07T06:47:00;2.07;;;1.13;;
11921;SDS011;6021;51.182;3.160;2022-12-07T06:49:29;3.30;;;1.30;;
11921;SDS011;6021;51.182;3.160;2022-12-07T06:51:57;1.17;;;1.00;;
11921;SDS011;6021;51.182;3.160;2022-12-07T06:54:25;2.77;;;1.17;;
11921;SDS011;6021;51.182;3.160;2022-12-07T06:56:55;3.73;;;1.30;;
11921;SDS011;6021;51.182;3.160;2022-12-07T06:59:24;3.97;;;1.17;;
11921;SDS011;6021;51.182;3.160;2022-12-07T07:01:52;5.07;;;1.53;;
11921;SDS011;6021;51.182;3.160;2022-12-07T07:04:21;2.73;;;1.20;;
11921;SDS011;6021;51.182;3.160;2022-12-07T07:06:50;5.40;;;1.57;;
11921;SDS011;6021;51.182;3.160;2022-12-07T07:09:18;2.93;;;1.40;;
11921;SDS011;6021;51.182;3.160;2022-12-07T07:11:46;5.33;;;1.50;;
11921;SDS011;6021;51.182;3.160;2022-12-07T07:14:15;7.70;;;2.00;;
11921;SDS011;6021;51.182;3.160;2022-12-07T07:16:45;3.50;;;1.60;;
11921;SDS011;6021;51.182;3.160;2022-12-07T07:19:13;5.90;;;1.90;;
11921;SDS011;6021;51.182;3.160;2022-12-07T07:21:42;6.23;;;1.70;;
11921;SDS011;6021;51.182;3.160;2022-12-07T07:24:10;6.50;;;1.80;;
11921;SDS011;6021;51.182;3.160;2022-12-07T07:26:39;8.63;;;1.80;;
11921;SDS011;6021;51.182;3.160;2022-12-07T07:29:07;6.50;;;1.83;;
11921;SDS011;6021;51.182;3.160;2022-12-07T07:31:35;3.67;;;1.50;;
11921;SDS011;6021;51.182;3.160;2022-12-07T07:34:04;4.77;;;1.50;;
11921;SDS011;6021;51.182;3.160;2022-12-07T07:36:32;3.47;;;1.43;;
11921;SDS011;6021;51.182;3.160;2022-12-07T07:39:00;7.30;;;1.70;;
11921;SDS011;6021;51.182;3.160;2022-12-07T07:41:29;5.13;;;2.60;;
11921;SDS011;6021;51.182;3.160;2022-12-07T07:43:58;6.20;;;4.50;;
11921;SDS011;6021;51.182;3.160;2022-12-07T07:46:26;10.73;;;7.70;;
11921;SDS011;6021;51.182;3.160;2022-12-07T07:48:54;13.40;;;7.67;;
11921;SDS011;6021;51.182;3.160;2022-12-07T07:51:23;11.20;;;7.37;;
11921;SDS011;6021;51.182;3.160;2022-12-07T07:53:51;6.67;;;5.37;;
11921;SDS011;6021;51.182;3.160;2022-12-07T07:56:19;11.67;;;6.00;;
11921;SDS011;6021;51.182;3.160;2022-12-07T07:58:51;9.03;;;5.83;;
11921;SDS011;6021;51.182;3.160;2022-12-07T08:01:20;9.40;;;4.60;;
11921;SDS011;6021;51.182;3.160;2022-12-07T08:03:49;7.03;;;3.93;;
11921;SDS011;6021;51.182;3.160;2022-12-07T08:06:17;6.90;;;3.50;;
11921;SDS011;6021;51.182;3.160;2022-12-07T08:08:46;8.93;;;3.93;;
11921;SDS011;6021;51.182;3.160;2022-12-07T08:11:14;4.60;;;2.77;;
11921;SDS011;6021;51.182;3.160;2022-12-07T08:13:44;5.30;;;2.20;;
11921;SDS011;6021;51.182;3.160;2022-12-07T08:16:13;6.30;;;2.03;;
11921;SDS011;6021;51.182;3.160;2022-12-07T08:18:42;6.03;;;1.90;;
11921;SDS011;6021;51.182;3.160;2022-12-07T08:21:12;6.40;;;1.97;;
11921;SDS011;6021;51.182;3.160;2022-12-07T08:23:42;5.13;;;1.93;;
11921;SDS011;6021;51.182;3.160;2022-12-07T08:26:11;5.73;;;1.80;;
11921;SDS011;6021;51.182;3.160;2022-12-07T08:28:41;8.73;;;1.90;;
11921;SDS011;6021;51.182;3.160;2022-12-07T08:31:12;4.17;;;1.60;;
11921;SDS011;6021;51.182;3.160;2022-12-07T08:33:44;7.27;;;1.93;;
11921;SDS011;6021;51.182;3.160;2022-12-07T08:36:14;5.60;;;1.70;;
11921;SDS011;6021;51.182;3.160;2022-12-07T08:38:44;3.23;;;1.57;;
11921;SDS011;6021;51.182;3.160;2022-12-07T08:41:13;6.03;;;1.80;;
11921;SDS011;6021;51.182;3.160;2022-12-07T08:43:41;4.93;;;1.80;;
11921;SDS011;6021;51.182;3.160;2022-12-07T08:46:15;2.93;;;1.80;;
11921;SDS011;6021;51.182;3.160;2022-12-07T08:48:57;3.73;;;1.90;;
11921;SDS011;6021;51.182;3.160;2022-12-07T08:51:27;4.43;;;1.70;;
11921;SDS011;6021;51.182;3.160;2022-12-07T08:53:56;4.30;;;2.17;;
11921;SDS011;6021;51.182;3.160;2022-12-07T08:59:02;7.13;;;1.70;;
11921;SDS011;6021;51.182;3.160;2022-12-07T09:01:32;2.20;;;1.50;;
11921;SDS011;6021;51.182;3.160;2022-12-07T09:04:01;5.67;;;2.17;;
11921;SDS011;6021;51.182;3.160;2022-12-07T09:06:29;9.57;;;2.47;;
11921;SDS011;6021;51.182;3.160;2022-12-07T09:08:58;8.23;;;6.17;;
11921;SDS011;6021;51.182;3.160;2022-12-07T09:11:28;19.70;;;13.67;;
11921;SDS011;6021;51.182;3.160;2022-12-07T09:13:56;19.03;;;14.93;;
11921;SDS011;6021;51.182;3.160;2022-12-07T09:16:25;9.63;;;8.60;;
11921;SDS011;6021;51.182;3.160;2022-12-07T09:18:53;7.77;;;5.70;;
11921;SDS011;6021;51.182;3.160;2022-12-07T09:21:22;7.57;;;4.53;;
11921;SDS011;6021;51.182;3.160;2022-12-07T09:23:50;6.23;;;3.67;;
11921;SDS011;6021;51.182;3.160;2022-12-07T09:26:18;9.70;;;2.77;;
11921;SDS011;6021;51.182;3.160;2022-12-07T09:28:47;6.00;;;2.60;;
11921;SDS011;6021;51.182;3.160;2022-12-07T09:31:15;7.67;;;3.47;;
11921;SDS011;6021;51.182;3.160;2022-12-07T09:33:44;6.63;;;3.13;;
11921;SDS011;6021;51.182;3.160;2022-12-07T09:36:12;6.40;;;2.63;;
11921;SDS011;6021;51.182;3.160;2022-12-07T09:38:41;7.70;;;2.63;;
11921;SDS011;6021;51.182;3.160;2022-12-07T09:41:09;8.00;;;3.60;;
11921;SDS011;6021;51.182;3.160;2022-12-07T09:43:38;6.43;;;3.20;;
11921;SDS011;6021;51.182;3.160;2022-12-07T09:46:08;6.47;;;3.10;;
11921;SDS011;6021;51.182;3.160;2022-12-07T09:48:42;5.07;;;2.50;;
11921;SDS011;6021;51.182;3.160;2022-12-07T09:51:14;6.13;;;2.50;;
11921;SDS011;6021;51.182;3.160;2022-12-07T09:53:42;4.80;;;2.50;;
11921;SDS011;6021;51.182;3.160;2022-12-07T09:56:13;5.67;;;2.50;;
11921;SDS011;6021;51.182;3.160;2022-12-07T09:58:43;3.30;;;2.40;;
11921;SDS011;6021;51.182;3.160;2022-12-07T10:01:18;8.87;;;2.90;;
11921;SDS011;6021;51.182;3.160;2022-12-07T10:03:52;5.30;;;2.60;;
11921;SDS011;6021;51.182;3.160;2022-12-07T10:06:22;7.17;;;2.20;;
11921;SDS011;6021;51.182;3.160;2022-12-07T10:08:51;5.50;;;2.40;;
11921;SDS011;6021;51.182;3.160;2022-12-07T10:11:19;9.80;;;2.00;;
11921;SDS011;6021;51.182;3.160;2022-12-07T10:13:49;2.50;;;1.50;;
11921;SDS011;6021;51.182;3.160;2022-12-07T10:16:37;4.27;;;1.80;;
11921;SDS011;6021;51.182;3.160;2022-12-07T10:19:28;7.27;;;2.17;;
11921;SDS011;6021;51.182;3.160;2022-12-07T10:22:10;5.70;;;2.10;;
11921;SDS011;6021;51.182;3.160;2022-12-07T10:24:40;6.33;;;2.10;;
11921;SDS011;6021;51.182;3.160;2022-12-07T10:27:26;7.03;;;1.90;;
11921;SDS011;6021;51.182;3.160;2022-12-07T10:29:51;6.83;;;1.60;;
11921;SDS011;6021;51.182;3.160;2022-12-07T10:35:18;4.97;;;1.33;;
11921;SDS011;6021;51.182;3.160;2022-12-07T10:37:47;7.53;;;1.60;;
11921;SDS011;6021;51.182;3.160;2022-12-07T10:40:36;5.20;;;1.30;;
11921;SDS011;6021;51.182;3.160;2022-12-07T10:43:04;4.23;;;1.30;;
11921;SDS011;6021;51.182;3.160;2022-12-07T10:45:35;4.73;;;1.40;;
11921;SDS011;6021;51.182;3.160;2022-12-07T11:04:55;2.03;;;0.93;;
11921;SDS011;6021;51.182;3.160;2022-12-07T11:08:09;2.87;;;1.10;;
11921;SDS011;6021;51.182;3.160;2022-12-07T11:10:18;4.63;;;1.10;;
11921;SDS011;6021;51.182;3.160;2022-12-07T11:15:30;4.53;;;1.27;;
11921;SDS011;6021;51.182;3.160;2022-12-07T11:23:46;5.53;;;1.30;;
11921;SDS011;6021;51.182;3.160;2022-12-07T11:26:18;3.57;;;1.17;;
11921;SDS011;6021;51.182;3.160;2022-12-07T11:29:09;5.40;;;1.30;;
11921;SDS011;6021;51.182;3.160;2022-12-07T11:34:49;4.17;;;1.07;;
11921;SDS011;6021;51.182;3.160;2022-12-07T11:37:18;4.37;;;1.30;;
11921;SDS011;6021;51.182;3.160;2022-12-07T11:39:51;3.43;;;1.23;;
11921;SDS011;6021;51.182;3.160;2022-12-07T11:42:23;3.13;;;0.97;;
11921;SDS011;6021;51.182;3.160;2022-12-07T11:44:55;3.17;;;1.10;;
11921;SDS011;6021;51.182;3.160;2022-12-07T11:49:58;2.50;;;1.10;;
11921;SDS011;6021;51.182;3.160;2022-12-07T11:52:32;1.93;;;0.93;;
11921;SDS011;6021;51.182;3.160;2022-12-07T11:57:42;2.07;;;1.20;;
11921;SDS011;6021;51.182;3.160;2022-12-07T12:00:15;3.70;;;1.10;;
11921;SDS011;6021;51.182;3.160;2022-12-07T12:02:53;3.17;;;1.30;;
11921;SDS011;6021;51.182;3.160;2022-12-07T12:05:23;3.07;;;1.23;;
11921;SDS011;6021;51.182;3.160;2022-12-07T12:08:15;3.03;;;1.53;;
11921;SDS011;6021;51.182;3.160;2022-12-07T12:10:33;3.30;;;1.30;;
11921;SDS011;6021;51.182;3.160;2022-12-07T12:13:05;4.10;;;1.43;;
11921;SDS011;6021;51.182;3.160;2022-12-07T12:18:35;6.40;;;1.70;;
11921;SDS011;6021;51.182;3.160;2022-12-07T12:23:41;4.50;;;1.20;;
11921;SDS011;6021;51.182;3.160;2022-12-07T12:26:21;2.30;;;1.10;;
11921;SDS011;6021;51.182;3.160;2022-12-07T12:28:54;4.13;;;1.37;;
11921;SDS011;6021;51.182;3.160;2022-12-07T12:36:59;2.20;;;1.00;;
11921;SDS011;6021;51.182;3.160;2022-12-07T12:39:28;4.50;;;1.20;;
11921;SDS011;6021;51.182;3.160;2022-12-07T12:41:56;4.37;;;1.40;;
11921;SDS011;6021;51.182;3.160;2022-12-07T12:49:33;2.87;;;1.10;;
11921;SDS011;6021;51.182;3.160;2022-12-07T12:55:11;2.87;;;1.10;;
11921;SDS011;6021;51.182;3.160;2022-12-07T12:57:30;5.77;;;1.43;;
11921;SDS011;6021;51.182;3.160;2022-12-07T13:00:00;3.23;;;1.10;;
11921;SDS011;6021;51.182;3.160;2022-12-07T13:02:30;2.70;;;1.13;;
11921;SDS011;6021;51.182;3.160;2022-12-07T13:18:36;3.77;;;1.20;;
11921;SDS011;6021;51.182;3.160;2022-12-07T13:21:40;4.83;;;1.30;;
11921;SDS011;6021;51.182;3.160;2022-12-07T13:23:37;3.27;;;1.47;;
11921;SDS011;6021;51.182;3.160;2022-12-07T13:26:14;3.63;;;1.50;;
11921;SDS011;6021;51.182;3.160;2022-12-07T13:29:05;5.20;;;1.80;;
11921;SDS011;6021;51.182;3.160;2022-12-07T13:34:02;4.40;;;2.40;;
11921;SDS011;6021;51.182;3.160;2022-12-07T13:36:43;5.70;;;2.20;;
11921;SDS011;6021;51.182;3.160;2022-12-07T13:41:43;2.90;;;2.10;;
11921;SDS011;6021;51.182;3.160;2022-12-07T13:44:13;5.70;;;2.90;;
11921;SDS011;6021;51.182;3.160;2022-12-07T13:47:00;4.47;;;2.80;;
11921;SDS011;6021;51.182;3.160;2022-12-07T13:49:38;12.63;;;6.00;;
11921;SDS011;6021;51.182;3.160;2022-12-07T13:52:19;11.93;;;6.27;;
11921;SDS011;6021;51.182;3.160;2022-12-07T13:54:54;9.70;;;5.70;;
11921;SDS011;6021;51.182;3.160;2022-12-07T13:57:33;8.43;;;4.80;;
11921;SDS011;6021;51.182;3.160;2022-12-07T14:00:03;8.23;;;4.97;;
11921;SDS011;6021;51.182;3.160;2022-12-07T14:02:34;8.70;;;3.93;;
11921;SDS011;6021;51.182;3.160;2022-12-07T14:05:07;8.23;;;3.13;;
11921;SDS011;6021;51.182;3.160;2022-12-07T14:07:56;8.87;;;3.20;;
11921;SDS011;6021;51.182;3.160;2022-12-07T14:10:27;6.77;;;2.17;;
11921;SDS011;6021;51.182;3.160;2022-12-07T14:13:00;5.20;;;1.97;;
11921;SDS011;6021;51.182;3.160;2022-12-07T14:15:31;5.90;;;2.00;;
11921;SDS011;6021;51.182;3.160;2022-12-07T14:18:02;6.10;;;1.83;;
11921;SDS011;6021;51.182;3.160;2022-12-07T14:20:39;5.03;;;2.10;;
11921;SDS011;6021;51.182;3.160;2022-12-07T14:23:06;4.17;;;1.53;;
11921;SDS011;6021;51.182;3.160;2022-12-07T14:25:52;6.97;;;1.80;;
11921;SDS011;6021;51.182;3.160;2022-12-07T14:28:30;3.00;;;1.80;;
11921;SDS011;6021;51.182;3.160;2022-12-07T14:30:58;4.03;;;1.50;;
11921;SDS011;6021;51.182;3.160;2022-12-07T14:33:27;5.90;;;1.37;;
11921;SDS011;6021;51.182;3.160;2022-12-07T14:35:56;4.13;;;1.53;;
11921;SDS011;6021;51.182;3.160;2022-12-07T14:38:25;3.60;;;1.50;;
11921;SDS011;6021;51.182;3.160;2022-12-07T14:40:53;3.53;;;1.50;;
11921;SDS011;6021;51.182;3.160;2022-12-07T14:43:28;2.20;;;1.20;;
11921;SDS011;6021;51.182;3.160;2022-12-07T14:45:56;2.77;;;1.50;;
11921;SDS011;6021;51.182;3.160;2022-12-07T14:48:25;3.97;;;1.53;;
11921;SDS011;6021;51.182;3.160;2022-12-07T14:50:53;6.73;;;1.80;;
11921;SDS011;6021;51.182;3.160;2022-12-07T14:53:24;5.20;;;1.83;;
11921;SDS011;6021;51.182;3.160;2022-12-07T14:55:55;5.13;;;2.20;;
11921;SDS011;6021;51.182;3.160;2022-12-07T14:58:23;4.30;;;2.00;;
11921;SDS011;6021;51.182;3.160;2022-12-07T15:00:51;2.30;;;1.60;;
11921;SDS011;6021;51.182;3.160;2022-12-07T15:03:21;4.73;;;2.00;;
11921;SDS011;6021;51.182;3.160;2022-12-07T15:05:49;3.73;;;2.03;;
11921;SDS011;6021;51.182;3.160;2022-12-07T15:08:18;6.20;;;2.27;;
11921;SDS011;6021;51.182;3.160;2022-12-07T15:10:46;4.97;;;2.60;;
11921;SDS011;6021;51.182;3.160;2022-12-07T15:13:15;4.80;;;3.13;;
11921;SDS011;6021;51.182;3.160;2022-12-07T15:16:01;6.73;;;3.20;;
11921;SDS011;6021;51.182;3.160;2022-12-07T15:18:29;8.43;;;2.93;;
11921;SDS011;6021;51.182;3.160;2022-12-07T15:20:58;8.00;;;3.80;;
11921;SDS011;6021;51.182;3.160;2022-12-07T15:23:26;3.90;;;3.43;;
11921;SDS011;6021;51.182;3.160;2022-12-07T15:25:54;5.63;;;3.00;;
11921;SDS011;6021;51.182;3.160;2022-12-07T15:28:23;4.37;;;2.63;;
11921;SDS011;6021;51.182;3.160;2022-12-07T15:30:51;7.27;;;3.00;;
11921;SDS011;6021;51.182;3.160;2022-12-07T15:33:20;6.83;;;3.27;;
11921;SDS011;6021;51.182;3.160;2022-12-07T15:35:48;5.27;;;3.23;;
11921;SDS011;6021;51.182;3.160;2022-12-07T15:38:17;5.97;;;2.80;;
11921;SDS011;6021;51.182;3.160;2022-12-07T15:40:48;4.30;;;2.40;;
11921;SDS011;6021;51.182;3.160;2022-12-07T15:43:16;9.43;;;4.07;;
11921;SDS011;6021;51.182;3.160;2022-12-07T15:46:02;9.40;;;2.80;;
11921;SDS011;6021;51.182;3.160;2022-12-07T15:48:31;4.40;;;3.00;;
11921;SDS011;6021;51.182;3.160;2022-12-07T15:51:08;4.50;;;3.03;;
11921;SDS011;6021;51.182;3.160;2022-12-07T15:53:37;4.93;;;3.13;;
11921;SDS011;6021;51.182;3.160;2022-12-07T15:56:05;3.40;;;2.10;;
11921;SDS011;6021;51.182;3.160;2022-12-07T15:58:34;4.27;;;2.40;;
11921;SDS011;6021;51.182;3.160;2022-12-07T16:01:14;1.93;;;1.60;;
11921;SDS011;6021;51.182;3.160;2022-12-07T16:03:44;4.17;;;2.10;;
11921;SDS011;6021;51.182;3.160;2022-12-07T16:06:18;4.43;;;2.13;;
11921;SDS011;6021;51.182;3.160;2022-12-07T16:08:45;4.07;;;2.10;;
11921;SDS011;6021;51.182;3.160;2022-12-07T16:11:14;3.47;;;2.00;;
11921;SDS011;6021;51.182;3.160;2022-12-07T16:13:42;6.53;;;2.50;;
11921;SDS011;6021;51.182;3.160;2022-12-07T16:16:12;3.87;;;2.33;;
11921;SDS011;6021;51.182;3.160;2022-12-07T16:18:42;3.60;;;2.00;;
11921;SDS011;6021;51.182;3.160;2022-12-07T16:21:12;3.73;;;2.63;;
11921;SDS011;6021;51.182;3.160;2022-12-07T16:23:42;5.17;;;2.83;;
11921;SDS011;6021;51.182;3.160;2022-12-07T16:26:16;5.17;;;2.60;;
11921;SDS011;6021;51.182;3.160;2022-12-07T16:28:43;6.37;;;2.40;;
11921;SDS011;6021;51.182;3.160;2022-12-07T16:31:13;5.10;;;2.70;;
11921;SDS011;6021;51.182;3.160;2022-12-07T16:33:43;3.40;;;2.70;;
11921;SDS011;6021;51.182;3.160;2022-12-07T16:36:12;3.77;;;2.90;;
11921;SDS011;6021;51.182;3.160;2022-12-07T16:38:42;4.47;;;2.97;;
11921;SDS011;6021;51.182;3.160;2022-12-07T16:41:11;4.13;;;2.77;;
11921;SDS011;6021;51.182;3.160;2022-12-07T16:43:40;5.83;;;2.90;;
11921;SDS011;6021;51.182;3.160;2022-12-07T16:46:08;3.10;;;2.80;;
11921;SDS011;6021;51.182;3.160;2022-12-07T16:48:37;4.50;;;2.70;;
11921;SDS011;6021;51.182;3.160;2022-12-07T16:51:07;4.30;;;3.00;;
11921;SDS011;6021;51.182;3.160;2022-12-07T16:53:39;8.07;;;3.87;;
11921;SDS011;6021;51.182;3.160;2022-12-07T16:56:15;8.83;;;4.63;;
11921;SDS011;6021;51.182;3.160;2022-12-07T16:58:39;11.23;;;5.50;;
11921;SDS011;6021;51.182;3.160;2022-12-07T17:01:14;8.57;;;5.03;;
11921;SDS011;6021;51.182;3.160;2022-12-07T17:03:39;7.60;;;5.20;;